メインページ
METAR-TAF:

METAR-TAF

空港 :

チェンナイ, インド

チェンナイ国際空港

緯度: 13-00N, 経度: 080-11E, 海抜: 10m

現時点の気象観測

当レポートは32分前の16:00(UTC)に作成
南/南東の風 7kt
気温 30°C
湿度 79%
気圧 1007 hPa
視程: 6000m
高度2000ftの雲は散在している

METAR: VOMM 221600Z 16007KT 6000 SCT020 30/26 Q1007 NOSIG

時間: 22:02 (16:32 UTC)

予報

当レポートは5時間32分前の11:00(UTC)に作成
予報は22日の 12時(UTC)から 23日の 18時(UTC)まで有効
南/南西の風 10kt
視程: 6000m
高度2000ftの雲は散在している
22日の 12時(UTC)から 22日の 18時(UTC)まで一時的に
視程: 4000m
高度1800ftの雲は散在している
高度2500ftの雲はほとんどない, 積乱雲.
高度8000ftの千切れ雲あり
22日の 18時(UTC)から 22日の 19時(UTC)まで徐々に
の風 5kt
視程: 5000m
煙霧
23日の 03時(UTC)から 23日の 04時(UTC)まで徐々に
視程: 6000m
23日の 12時(UTC)から 23日の 18時(UTC)まで一時的に
高度2000ftの雲は散在している
高度2500ftの雲はほとんどない, 積乱雲.
高度10000ftの千切れ雲あり
23日の 17時(UTC)から 23日の 18時(UTC)まで徐々に
南/南西の風 10kt

TAF: VOMM 221100Z 2212/2318 20010KT 6000 SCT020 TEMPO 2212/2218 4000 -TSRA/RA SCT018 FEW025CB BKN080 BECMG 2218/2219 18005KT 5000 HZ BECMG 2303/2304 6000 TEMPO 2312/2318 SCT020 FEW025CB BKN100 BECMG 2317/2318 20010KT

4,000以上の空港の気象観測と天気予報(METAR報とTAF報)

利用可能な観測所は地図上に黄色い丸と赤い丸で示す。

丸の上にカーソルを重ねると観測所名を参照できる。

次にクリックすると気象観測と天気予報を参照できる。

マップの切り替え:黒色「×」印の緑ボタンをクリックして拡大、「-」印の緑ボタンをクリックして縮小、緑色の三角印をクリックして隣りの地図に切り替え


METAR-TAF: